クリスマス島 の空港の天気 - METARとTAF

クリスマス島空港 ( YPXM / XCH ) - クリスマス島 クリスマス島
飛行場実況気象(Metar)
観測時間08/05 02:30 CXT (08/04 19:30 UTC)
風向・風速東 4m/s
視程8000m
天気現象
全天の8割程度の雲 雲底高度 240m
全天を覆う雲 雲底高度 340m
気温24℃
湿度89%
気圧1012hPa
METARYPXM 041930Z AUTO 10007KT 8000 // BKN008 OVC011 24/22 Q1012
過去の天気等 Google飛行場航空写真 Wunderground天気予報

過去48時間のMETAR

飛行場予報(TAF)
発表時間: 8/05 00:18 CXT (8/04 17:18 UTC)
予報対象時間: 5日1時 CXT ~ 6日1時 CXT
風向・風速東南東 7m/s
視程10km以上
天気現象弱いしゅう雨
全天の4割程度の雲 雲底高度 180m
全天の8割程度の雲 雲底高度 300m
5日11時 CXT から
風向・風速東 6m/s
視程10km以上
天気現象弱いしゅう雨
全天の4割程度の雲 雲底高度 300m
全天の8割程度の雲 雲底高度 430m
5日1時 CXT ~ 5日7時 CXT に一時的に
視程10km以上
全天の8割程度の雲 雲底高度 180m
5日16時 CXT ~ 6日1時 CXT に一時的に
視程10km以上
全天の8割程度の雲 雲底高度 180m
TAF YPXM 041718Z 0418/0518 11013KT 9999 -SHRA SCT006 BKN010
FM050400 10012KT 9999 -SHRA SCT010 BKN014
TEMPO 0418/0500 9999 BKN006 INTER 0418/0421 3000 SHRA BKN005
TEMPO 0509/0518 9999 BKN006